sensor_id;sensor_type;location;lat;lon;timestamp;temperature;humidity
64062;DHT22;50308;47.438;-1.528;2023-09-12T00:01:08;22.90;82.70
64062;DHT22;50308;47.438;-1.528;2023-09-12T00:03:34;22.90;82.70
64062;DHT22;50308;47.438;-1.528;2023-09-12T00:06:01;22.80;82.60
64062;DHT22;50308;47.438;-1.528;2023-09-12T00:08:27;22.80;82.60
64062;DHT22;50308;47.438;-1.528;2023-09-12T00:11:04;22.80;82.60
64062;DHT22;50308;47.438;-1.528;2023-09-12T00:13:32;22.80;82.60
64062;DHT22;50308;47.438;-1.528;2023-09-12T00:15:58;22.80;82.60
64062;DHT22;50308;47.438;-1.528;2023-09-12T00:18:24;22.80;82.60
64062;DHT22;50308;47.438;-1.528;2023-09-12T00:20:50;22.80;82.60
64062;DHT22;50308;47.438;-1.528;2023-09-12T00:23:18;22.70;82.60
64062;DHT22;50308;47.438;-1.528;2023-09-12T00:25:44;22.70;82.70
64062;DHT22;50308;47.438;-1.528;2023-09-12T00:28:09;22.70;82.70
64062;DHT22;50308;47.438;-1.528;2023-09-12T00:30:35;22.70;82.70
64062;DHT22;50308;47.438;-1.528;2023-09-12T00:33:01;22.70;82.80
64062;DHT22;50308;47.438;-1.528;2023-09-12T00:35:26;22.70;82.80
64062;DHT22;50308;47.438;-1.528;2023-09-12T00:37:52;22.70;82.60
64062;DHT22;50308;47.438;-1.528;2023-09-12T00:40:17;22.60;82.80
64062;DHT22;50308;47.438;-1.528;2023-09-12T00:42:43;22.60;82.90
64062;DHT22;50308;47.438;-1.528;2023-09-12T00:45:09;22.60;82.80
64062;DHT22;50308;47.438;-1.528;2023-09-12T00:47:35;22.60;82.90
64062;DHT22;50308;47.438;-1.528;2023-09-12T00:50:02;22.60;82.90
64062;DHT22;50308;47.438;-1.528;2023-09-12T00:52:31;22.60;83.00
64062;DHT22;50308;47.438;-1.528;2023-09-12T00:54:58;22.60;83.00
64062;DHT22;50308;47.438;-1.528;2023-09-12T00:57:23;22.60;83.00
64062;DHT22;50308;47.438;-1.528;2023-09-12T00:59:51;22.50;83.10
64062;DHT22;50308;47.438;-1.528;2023-09-12T01:02:21;22.50;83.10
64062;DHT22;50308;47.438;-1.528;2023-09-12T01:04:47;22.50;83.10
64062;DHT22;50308;47.438;-1.528;2023-09-12T01:07:13;22.50;83.30
64062;DHT22;50308;47.438;-1.528;2023-09-12T01:09:40;22.50;83.20
64062;DHT22;50308;47.438;-1.528;2023-09-12T01:12:06;22.50;83.30
64062;DHT22;50308;47.438;-1.528;2023-09-12T01:14:32;22.50;83.30
64062;DHT22;50308;47.438;-1.528;2023-09-12T01:16:58;22.50;83.10
64062;DHT22;50308;47.438;-1.528;2023-09-12T01:19:24;22.60;83.20
64062;DHT22;50308;47.438;-1.528;2023-09-12T01:22:11;22.60;83.10
64062;DHT22;50308;47.438;-1.528;2023-09-12T01:29:53;22.50;83.00
64062;DHT22;50308;47.438;-1.528;2023-09-12T01:32:20;22.50;83.00
64062;DHT22;50308;47.438;-1.528;2023-09-12T01:34:45;22.50;83.10
64062;DHT22;50308;47.438;-1.528;2023-09-12T01:37:11;22.60;83.10
64062;DHT22;50308;47.438;-1.528;2023-09-12T01:39:37;22.50;82.90
64062;DHT22;50308;47.438;-1.528;2023-09-12T01:42:03;22.50;83.10
64062;DHT22;50308;47.438;-1.528;2023-09-12T01:44:30;22.50;83.10
64062;DHT22;50308;47.438;-1.528;2023-09-12T01:47:00;22.50;83.10
64062;DHT22;50308;47.438;-1.528;2023-09-12T01:49:28;22.50;83.10
64062;DHT22;50308;47.438;-1.528;2023-09-12T01:51:54;22.50;83.10
64062;DHT22;50308;47.438;-1.528;2023-09-12T01:54:21;22.50;83.10
64062;DHT22;50308;47.438;-1.528;2023-09-12T01:56:48;22.50;83.20
64062;DHT22;50308;47.438;-1.528;2023-09-12T01:59:14;22.40;83.10
64062;DHT22;50308;47.438;-1.528;2023-09-12T02:01:39;22.50;83.10
64062;DHT22;50308;47.438;-1.528;2023-09-12T02:04:07;22.40;83.10
64062;DHT22;50308;47.438;-1.528;2023-09-12T02:06:34;22.40;83.10
64062;DHT22;50308;47.438;-1.528;2023-09-12T02:09:01;22.40;83.00
64062;DHT22;50308;47.438;-1.528;2023-09-12T02:11:27;22.40;83.00
64062;DHT22;50308;47.438;-1.528;2023-09-12T02:13:52;22.40;82.90
64062;DHT22;50308;47.438;-1.528;2023-09-12T02:16:18;22.40;83.00
64062;DHT22;50308;47.438;-1.528;2023-09-12T02:18:44;22.40;82.90
64062;DHT22;50308;47.438;-1.528;2023-09-12T02:21:09;22.40;83.00
64062;DHT22;50308;47.438;-1.528;2023-09-12T02:23:35;22.30;82.90
64062;DHT22;50308;47.438;-1.528;2023-09-12T02:26:01;22.30;83.00
64062;DHT22;50308;47.438;-1.528;2023-09-12T02:28:26;22.30;82.90
64062;DHT22;50308;47.438;-1.528;2023-09-12T02:30:52;22.30;82.90
64062;DHT22;50308;47.438;-1.528;2023-09-12T02:33:18;22.30;83.00
64062;DHT22;50308;47.438;-1.528;2023-09-12T02:35:43;22.30;83.10
64062;DHT22;50308;47.438;-1.528;2023-09-12T02:38:09;22.20;83.00
64062;DHT22;50308;47.438;-1.528;2023-09-12T02:40:35;22.20;83.00
64062;DHT22;50308;47.438;-1.528;2023-09-12T02:43:01;22.20;83.00
64062;DHT22;50308;47.438;-1.528;2023-09-12T02:45:26;22.20;83.00
64062;DHT22;50308;47.438;-1.528;2023-09-12T02:47:52;22.20;83.00
64062;DHT22;50308;47.438;-1.528;2023-09-12T02:50:17;22.20;83.00
64062;DHT22;50308;47.438;-1.528;2023-09-12T02:52:43;22.20;83.00
64062;DHT22;50308;47.438;-1.528;2023-09-12T02:55:09;22.20;83.00
64062;DHT22;50308;47.438;-1.528;2023-09-12T02:57:34;22.20;83.00
64062;DHT22;50308;47.438;-1.528;2023-09-12T03:00:00;22.20;83.00
64062;DHT22;50308;47.438;-1.528;2023-09-12T03:02:26;22.20;83.00
64062;DHT22;50308;47.438;-1.528;2023-09-12T03:04:54;22.20;83.00
64062;DHT22;50308;47.438;-1.528;2023-09-12T03:07:20;22.20;83.00
64062;DHT22;50308;47.438;-1.528;2023-09-12T03:09:48;22.10;83.00
64062;DHT22;50308;47.438;-1.528;2023-09-12T03:12:15;22.10;82.90
64062;DHT22;50308;47.438;-1.528;2023-09-12T03:14:40;22.10;83.00
64062;DHT22;50308;47.438;-1.528;2023-09-12T03:17:06;22.10;83.20
64062;DHT22;50308;47.438;-1.528;2023-09-12T03:19:32;22.10;83.20
64062;DHT22;50308;47.438;-1.528;2023-09-12T03:21:57;22.10;83.20
64062;DHT22;50308;47.438;-1.528;2023-09-12T03:24:23;22.10;83.30
64062;DHT22;50308;47.438;-1.528;2023-09-12T03:26:51;22.10;83.30
64062;DHT22;50308;47.438;-1.528;2023-09-12T03:29:17;22.10;83.20
64062;DHT22;50308;47.438;-1.528;2023-09-12T03:31:42;22.10;83.10
64062;DHT22;50308;47.438;-1.528;2023-09-12T03:34:08;22.10;83.20
64062;DHT22;50308;47.438;-1.528;2023-09-12T03:36:34;22.10;83.10
64062;DHT22;50308;47.438;-1.528;2023-09-12T03:38:59;22.10;83.10
64062;DHT22;50308;47.438;-1.528;2023-09-12T03:41:25;22.00;83.10
64062;DHT22;50308;47.438;-1.528;2023-09-12T03:43:54;22.00;83.10
64062;DHT22;50308;47.438;-1.528;2023-09-12T03:46:21;22.00;83.10
64062;DHT22;50308;47.438;-1.528;2023-09-12T03:48:46;22.00;83.10
64062;DHT22;50308;47.438;-1.528;2023-09-12T03:51:12;22.00;83.20
64062;DHT22;50308;47.438;-1.528;2023-09-12T03:53:38;22.00;83.20
64062;DHT22;50308;47.438;-1.528;2023-09-12T03:56:04;22.00;83.10
64062;DHT22;50308;47.438;-1.528;2023-09-12T03:58:30;22.00;83.10
64062;DHT22;50308;47.438;-1.528;2023-09-12T04:00:55;22.00;83.20
64062;DHT22;50308;47.438;-1.528;2023-09-12T04:03:21;22.00;83.10
64062;DHT22;50308;47.438;-1.528;2023-09-12T04:05:47;22.00;83.10
64062;DHT22;50308;47.438;-1.528;2023-09-12T04:08:13;22.00;83.10
64062;DHT22;50308;47.438;-1.528;2023-09-12T04:10:39;22.00;83.10
64062;DHT22;50308;47.438;-1.528;2023-09-12T04:13:04;22.00;83.20
64062;DHT22;50308;47.438;-1.528;2023-09-12T04:15:30;22.00;83.10
64062;DHT22;50308;47.438;-1.528;2023-09-12T04:17:56;22.00;83.10
64062;DHT22;50308;47.438;-1.528;2023-09-12T04:20:21;22.00;83.00
64062;DHT22;50308;47.438;-1.528;2023-09-12T04:22:47;22.00;83.10
64062;DHT22;50308;47.438;-1.528;2023-09-12T04:25:13;22.00;83.10
64062;DHT22;50308;47.438;-1.528;2023-09-12T04:27:41;22.00;83.10
64062;DHT22;50308;47.438;-1.528;2023-09-12T04:30:07;22.00;83.00
64062;DHT22;50308;47.438;-1.528;2023-09-12T04:32:33;22.00;83.00
64062;DHT22;50308;47.438;-1.528;2023-09-12T04:34:59;22.00;83.00
64062;DHT22;50308;47.438;-1.528;2023-09-12T04:37:24;22.00;83.10
64062;DHT22;50308;47.438;-1.528;2023-09-12T04:39:50;22.00;83.10
64062;DHT22;50308;47.438;-1.528;2023-09-12T04:42:16;22.00;83.10
64062;DHT22;50308;47.438;-1.528;2023-09-12T04:44:42;22.00;83.00
64062;DHT22;50308;47.438;-1.528;2023-09-12T04:47:08;22.00;83.10
64062;DHT22;50308;47.438;-1.528;2023-09-12T04:49:34;22.00;83.10
64062;DHT22;50308;47.438;-1.528;2023-09-12T04:52:00;22.00;83.20
64062;DHT22;50308;47.438;-1.528;2023-09-12T04:54:26;22.00;83.20
64062;DHT22;50308;47.438;-1.528;2023-09-12T04:56:52;22.00;83.10
64062;DHT22;50308;47.438;-1.528;2023-09-12T04:59:18;22.00;83.20
64062;DHT22;50308;47.438;-1.528;2023-09-12T05:01:44;22.00;83.30
64062;DHT22;50308;47.438;-1.528;2023-09-12T05:04:10;22.00;83.20
64062;DHT22;50308;47.438;-1.528;2023-09-12T05:06:35;22.00;83.30
64062;DHT22;50308;47.438;-1.528;2023-09-12T05:09:01;22.00;83.20
64062;DHT22;50308;47.438;-1.528;2023-09-12T05:11:28;22.00;83.20
64062;DHT22;50308;47.438;-1.528;2023-09-12T05:13:54;22.00;83.20
64062;DHT22;50308;47.438;-1.528;2023-09-12T05:16:19;22.00;83.30
64062;DHT22;50308;47.438;-1.528;2023-09-12T05:18:45;22.00;83.30
64062;DHT22;50308;47.438;-1.528;2023-09-12T05:21:11;21.90;83.20
64062;DHT22;50308;47.438;-1.528;2023-09-12T05:23:36;21.90;83.40
64062;DHT22;50308;47.438;-1.528;2023-09-12T05:26:02;21.90;83.50
64062;DHT22;50308;47.438;-1.528;2023-09-12T05:28:28;21.90;83.50
64062;DHT22;50308;47.438;-1.528;2023-09-12T05:30:54;21.90;83.50
64062;DHT22;50308;47.438;-1.528;2023-09-12T05:33:19;22.00;83.60
64062;DHT22;50308;47.438;-1.528;2023-09-12T05:35:45;22.00;83.40
64062;DHT22;50308;47.438;-1.528;2023-09-12T05:38:11;22.00;83.40
64062;DHT22;50308;47.438;-1.528;2023-09-12T05:40:37;22.00;83.50
64062;DHT22;50308;47.438;-1.528;2023-09-12T05:43:02;21.90;83.50
64062;DHT22;50308;47.438;-1.528;2023-09-12T05:45:28;22.00;83.50
64062;DHT22;50308;47.438;-1.528;2023-09-12T05:47:56;22.00;83.50
64062;DHT22;50308;47.438;-1.528;2023-09-12T05:50:22;21.90;83.60
64062;DHT22;50308;47.438;-1.528;2023-09-12T05:52:48;22.00;83.70
64062;DHT22;50308;47.438;-1.528;2023-09-12T05:55:14;21.90;83.60
64062;DHT22;50308;47.438;-1.528;2023-09-12T05:57:40;21.90;83.60
64062;DHT22;50308;47.438;-1.528;2023-09-12T06:00:06;22.00;83.70
64062;DHT22;50308;47.438;-1.528;2023-09-12T06:02:35;22.00;83.80
64062;DHT22;50308;47.438;-1.528;2023-09-12T06:05:01;22.00;83.80
64062;DHT22;50308;47.438;-1.528;2023-09-12T06:07:27;22.00;83.70
64062;DHT22;50308;47.438;-1.528;2023-09-12T06:09:52;22.00;83.90
64062;DHT22;50308;47.438;-1.528;2023-09-12T06:12:18;22.00;83.70
64062;DHT22;50308;47.438;-1.528;2023-09-12T06:14:44;22.00;84.20
64062;DHT22;50308;47.438;-1.528;2023-09-12T06:17:09;22.00;83.90
64062;DHT22;50308;47.438;-1.528;2023-09-12T06:19:35;22.00;83.80
64062;DHT22;50308;47.438;-1.528;2023-09-12T06:22:00;22.00;83.90
64062;DHT22;50308;47.438;-1.528;2023-09-12T06:24:26;22.00;83.90
64062;DHT22;50308;47.438;-1.528;2023-09-12T06:26:52;22.00;83.90
64062;DHT22;50308;47.438;-1.528;2023-09-12T06:29:18;22.00;83.90
64062;DHT22;50308;47.438;-1.528;2023-09-12T06:31:44;22.00;84.00
64062;DHT22;50308;47.438;-1.528;2023-09-12T06:34:10;22.00;84.00
64062;DHT22;50308;47.438;-1.528;2023-09-12T06:36:35;22.00;83.90
64062;DHT22;50308;47.438;-1.528;2023-09-12T06:39:01;21.90;84.40
64062;DHT22;50308;47.438;-1.528;2023-09-12T06:41:29;21.70;85.70
64062;DHT22;50308;47.438;-1.528;2023-09-12T06:43:55;21.30;86.80
64062;DHT22;50308;47.438;-1.528;2023-09-12T06:46:23;21.20;87.50
64062;DHT22;50308;47.438;-1.528;2023-09-12T06:48:49;21.10;88.00
64062;DHT22;50308;47.438;-1.528;2023-09-12T06:51:16;21.10;88.40
64062;DHT22;50308;47.438;-1.528;2023-09-12T06:53:42;21.00;89.00
64062;DHT22;50308;47.438;-1.528;2023-09-12T06:56:08;20.90;89.30
64062;DHT22;50308;47.438;-1.528;2023-09-12T06:58:33;20.90;89.90
64062;DHT22;50308;47.438;-1.528;2023-09-12T07:01:06;20.80;90.10
64062;DHT22;50308;47.438;-1.528;2023-09-12T07:03:35;20.90;90.00
64062;DHT22;50308;47.438;-1.528;2023-09-12T07:06:02;20.90;90.10
64062;DHT22;50308;47.438;-1.528;2023-09-12T07:08:32;21.00;90.10
64062;DHT22;50308;47.438;-1.528;2023-09-12T07:10:58;20.90;90.10
64062;DHT22;50308;47.438;-1.528;2023-09-12T07:13:31;20.90;90.30
64062;DHT22;50308;47.438;-1.528;2023-09-12T07:15:57;20.80;90.40
64062;DHT22;50308;47.438;-1.528;2023-09-12T07:18:23;20.90;90.40
64062;DHT22;50308;47.438;-1.528;2023-09-12T07:21:00;20.90;90.50
64062;DHT22;50308;47.438;-1.528;2023-09-12T07:23:26;21.00;90.40
64062;DHT22;50308;47.438;-1.528;2023-09-12T07:25:52;21.00;90.30
64062;DHT22;50308;47.438;-1.528;2023-09-12T07:28:18;21.00;90.50
64062;DHT22;50308;47.438;-1.528;2023-09-12T07:30:48;21.00;90.40
64062;DHT22;50308;47.438;-1.528;2023-09-12T07:33:13;21.00;90.40
64062;DHT22;50308;47.438;-1.528;2023-09-12T07:35:39;21.10;90.30
64062;DHT22;50308;47.438;-1.528;2023-09-12T07:38:05;21.10;90.30
64062;DHT22;50308;47.438;-1.528;2023-09-12T07:40:30;21.10;90.30
64062;DHT22;50308;47.438;-1.528;2023-09-12T07:42:56;21.10;90.30
64062;DHT22;50308;47.438;-1.528;2023-09-12T07:45:22;21.20;90.20
64062;DHT22;50308;47.438;-1.528;2023-09-12T07:47:47;21.20;90.20
64062;DHT22;50308;47.438;-1.528;2023-09-12T07:50:14;21.20;90.20
64062;DHT22;50308;47.438;-1.528;2023-09-12T07:52:39;21.20;90.20
64062;DHT22;50308;47.438;-1.528;2023-09-12T07:55:06;21.20;90.20
64062;DHT22;50308;47.438;-1.528;2023-09-12T07:57:32;21.20;90.20
64062;DHT22;50308;47.438;-1.528;2023-09-12T07:59:58;21.30;90.20
64062;DHT22;50308;47.438;-1.528;2023-09-12T08:02:24;21.30;90.10
64062;DHT22;50308;47.438;-1.528;2023-09-12T08:04:50;21.30;90.00
64062;DHT22;50308;47.438;-1.528;2023-09-12T08:07:16;21.30;90.40
64062;DHT22;50308;47.438;-1.528;2023-09-12T08:09:50;21.30;89.80
64062;DHT22;50308;47.438;-1.528;2023-09-12T08:12:17;21.30;89.80
64062;DHT22;50308;47.438;-1.528;2023-09-12T08:14:43;21.40;89.80
64062;DHT22;50308;47.438;-1.528;2023-09-12T08:17:10;21.40;89.80
64062;DHT22;50308;47.438;-1.528;2023-09-12T08:19:36;21.40;89.60
64062;DHT22;50308;47.438;-1.528;2023-09-12T08:22:02;21.50;89.50
64062;DHT22;50308;47.438;-1.528;2023-09-12T08:24:28;21.50;89.10
64062;DHT22;50308;47.438;-1.528;2023-09-12T08:26:53;21.60;89.40
64062;DHT22;50308;47.438;-1.528;2023-09-12T08:29:20;21.70;89.30
64062;DHT22;50308;47.438;-1.528;2023-09-12T08:31:46;21.80;89.10
64062;DHT22;50308;47.438;-1.528;2023-09-12T08:34:12;21.80;88.80
64062;DHT22;50308;47.438;-1.528;2023-09-12T08:36:39;21.90;88.70
64062;DHT22;50308;47.438;-1.528;2023-09-12T08:39:04;21.90;88.50
64062;DHT22;50308;47.438;-1.528;2023-09-12T08:41:33;22.00;88.10
64062;DHT22;50308;47.438;-1.528;2023-09-12T08:44:00;22.00;88.00
64062;DHT22;50308;47.438;-1.528;2023-09-12T08:46:26;22.10;88.10
64062;DHT22;50308;47.438;-1.528;2023-09-12T08:48:54;22.10;87.90
64062;DHT22;50308;47.438;-1.528;2023-09-12T08:51:22;22.20;87.90
64062;DHT22;50308;47.438;-1.528;2023-09-12T08:53:49;22.20;87.70
64062;DHT22;50308;47.438;-1.528;2023-09-12T08:56:15;22.20;87.70
64062;DHT22;50308;47.438;-1.528;2023-09-12T08:58:41;22.30;87.70
64062;DHT22;50308;47.438;-1.528;2023-09-12T09:01:10;22.30;87.50
64062;DHT22;50308;47.438;-1.528;2023-09-12T09:03:39;22.40;87.20
64062;DHT22;50308;47.438;-1.528;2023-09-12T09:06:07;22.40;86.90
64062;DHT22;50308;47.438;-1.528;2023-09-12T09:08:34;22.40;86.90
64062;DHT22;50308;47.438;-1.528;2023-09-12T09:11:01;22.40;86.90
64062;DHT22;50308;47.438;-1.528;2023-09-12T09:13:29;22.40;86.70
64062;DHT22;50308;47.438;-1.528;2023-09-12T09:16:17;22.40;86.40
64062;DHT22;50308;47.438;-1.528;2023-09-12T09:21:22;22.50;86.10
64062;DHT22;50308;47.438;-1.528;2023-09-12T09:23:51;22.50;85.80
64062;DHT22;50308;47.438;-1.528;2023-09-12T09:26:17;22.50;85.60
64062;DHT22;50308;47.438;-1.528;2023-09-12T09:28:43;22.50;85.70
64062;DHT22;50308;47.438;-1.528;2023-09-12T09:31:15;22.50;85.50
64062;DHT22;50308;47.438;-1.528;2023-09-12T09:33:40;22.60;85.50
64062;DHT22;50308;47.438;-1.528;2023-09-12T09:36:07;22.50;85.30
64062;DHT22;50308;47.438;-1.528;2023-09-12T09:38:36;22.50;85.30
64062;DHT22;50308;47.438;-1.528;2023-09-12T09:41:06;22.50;85.20
64062;DHT22;50308;47.438;-1.528;2023-09-12T09:43:32;22.60;85.10
64062;DHT22;50308;47.438;-1.528;2023-09-12T09:45:58;22.60;85.10
64062;DHT22;50308;47.438;-1.528;2023-09-12T09:48:25;22.60;84.90
64062;DHT22;50308;47.438;-1.528;2023-09-12T09:51:03;22.60;84.80
64062;DHT22;50308;47.438;-1.528;2023-09-12T09:53:32;22.70;84.60
64062;DHT22;50308;47.438;-1.528;2023-09-12T09:56:12;22.70;84.40
64062;DHT22;50308;47.438;-1.528;2023-09-12T09:58:48;22.70;84.00
64062;DHT22;50308;47.438;-1.528;2023-09-12T10:01:27;22.70;84.20
64062;DHT22;50308;47.438;-1.528;2023-09-12T10:04:00;22.70;83.70
64062;DHT22;50308;47.438;-1.528;2023-09-12T10:06:27;22.70;84.10
64062;DHT22;50308;47.438;-1.528;2023-09-12T10:08:55;22.80;83.70
64062;DHT22;50308;47.438;-1.528;2023-09-12T10:11:27;22.70;83.60
64062;DHT22;50308;47.438;-1.528;2023-09-12T10:13:55;22.80;83.60
64062;DHT22;50308;47.438;-1.528;2023-09-12T10:21:34;22.80;83.70
64062;DHT22;50308;47.438;-1.528;2023-09-12T10:24:03;22.80;83.60
64062;DHT22;50308;47.438;-1.528;2023-09-12T10:26:31;22.80;83.70
64062;DHT22;50308;47.438;-1.528;2023-09-12T10:28:59;22.80;83.30
64062;DHT22;50308;47.438;-1.528;2023-09-12T10:31:26;22.80;82.60
64062;DHT22;50308;47.438;-1.528;2023-09-12T10:33:53;22.80;83.10
64062;DHT22;50308;47.438;-1.528;2023-09-12T10:36:22;22.80;82.60
64062;DHT22;50308;47.438;-1.528;2023-09-12T10:38:50;22.80;82.10
64062;DHT22;50308;47.438;-1.528;2023-09-12T10:41:16;22.90;83.20
64062;DHT22;50308;47.438;-1.528;2023-09-12T10:43:45;22.80;81.60
64062;DHT22;50308;47.438;-1.528;2023-09-12T10:46:12;22.80;82.20
64062;DHT22;50308;47.438;-1.528;2023-09-12T10:48:38;22.90;82.40
64062;DHT22;50308;47.438;-1.528;2023-09-12T10:51:08;22.90;82.30
64062;DHT22;50308;47.438;-1.528;2023-09-12T10:53:35;22.80;82.00
64062;DHT22;50308;47.438;-1.528;2023-09-12T10:56:21;22.90;82.10
64062;DHT22;50308;47.438;-1.528;2023-09-12T11:01:38;22.80;82.10
64062;DHT22;50308;47.438;-1.528;2023-09-12T11:06:45;22.90;82.10
64062;DHT22;50308;47.438;-1.528;2023-09-12T11:12:09;22.90;82.10
64062;DHT22;50308;47.438;-1.528;2023-09-12T11:15:05;22.90;81.10
64062;DHT22;50308;47.438;-1.528;2023-09-12T11:17:37;23.00;81.30
64062;DHT22;50308;47.438;-1.528;2023-09-12T11:20:03;23.00;81.50
64062;DHT22;50308;47.438;-1.528;2023-09-12T11:22:39;23.00;81.30
64062;DHT22;50308;47.438;-1.528;2023-09-12T11:25:16;23.00;80.80
64062;DHT22;50308;47.438;-1.528;2023-09-12T11:30:23;23.00;80.90
64062;DHT22;50308;47.438;-1.528;2023-09-12T11:32:53;23.00;81.00
64062;DHT22;50308;47.438;-1.528;2023-09-12T11:35:24;23.00;81.50
64062;DHT22;50308;47.438;-1.528;2023-09-12T11:37:51;23.00;81.20
64062;DHT22;50308;47.438;-1.528;2023-09-12T11:40:19;23.00;81.40
64062;DHT22;50308;47.438;-1.528;2023-09-12T11:42:48;23.00;81.50
64062;DHT22;50308;47.438;-1.528;2023-09-12T11:45:18;23.00;81.30
64062;DHT22;50308;47.438;-1.528;2023-09-12T11:47:44;23.00;81.30
64062;DHT22;50308;47.438;-1.528;2023-09-12T11:53:22;23.00;80.80
64062;DHT22;50308;47.438;-1.528;2023-09-12T11:55:57;23.00;80.40
64062;DHT22;50308;47.438;-1.528;2023-09-12T11:58:24;23.00;80.80
64062;DHT22;50308;47.438;-1.528;2023-09-12T12:00:52;23.10;80.90
64062;DHT22;50308;47.438;-1.528;2023-09-12T12:03:21;23.00;80.70
64062;DHT22;50308;47.438;-1.528;2023-09-12T12:05:47;23.00;80.80
64062;DHT22;50308;47.438;-1.528;2023-09-12T12:08:15;23.00;80.10
64062;DHT22;50308;47.438;-1.528;2023-09-12T12:10:41;23.00;80.30
64062;DHT22;50308;47.438;-1.528;2023-09-12T12:13:11;23.00;80.50
64062;DHT22;50308;47.438;-1.528;2023-09-12T12:15:37;23.10;80.80
64062;DHT22;50308;47.438;-1.528;2023-09-12T12:18:03;23.10;80.50
64062;DHT22;50308;47.438;-1.528;2023-09-12T12:20:29;23.10;80.40
64062;DHT22;50308;47.438;-1.528;2023-09-12T12:22:56;23.00;80.30
64062;DHT22;50308;47.438;-1.528;2023-09-12T12:25:21;23.00;79.90
64062;DHT22;50308;47.438;-1.528;2023-09-12T12:27:48;23.10;79.90
64062;DHT22;50308;47.438;-1.528;2023-09-12T12:30:14;23.10;79.70
64062;DHT22;50308;47.438;-1.528;2023-09-12T12:32:43;23.10;79.90
64062;DHT22;50308;47.438;-1.528;2023-09-12T12:35:18;23.10;79.60
64062;DHT22;50308;47.438;-1.528;2023-09-12T12:37:44;23.10;79.90
64062;DHT22;50308;47.438;-1.528;2023-09-12T12:40:13;23.10;79.60
64062;DHT22;50308;47.438;-1.528;2023-09-12T12:42:40;23.20;80.10
64062;DHT22;50308;47.438;-1.528;2023-09-12T12:45:19;23.10;79.70
64062;DHT22;50308;47.438;-1.528;2023-09-12T12:47:44;23.20;79.80
64062;DHT22;50308;47.438;-1.528;2023-09-12T12:50:14;23.20;79.90
64062;DHT22;50308;47.438;-1.528;2023-09-12T12:52:41;23.20;79.50
64062;DHT22;50308;47.438;-1.528;2023-09-12T12:55:10;23.20;79.70
64062;DHT22;50308;47.438;-1.528;2023-09-12T12:57:40;23.10;79.90
64062;DHT22;50308;47.438;-1.528;2023-09-12T13:00:12;23.10;80.20
64062;DHT22;50308;47.438;-1.528;2023-09-12T13:02:43;23.10;80.20
64062;DHT22;50308;47.438;-1.528;2023-09-12T13:05:24;23.10;80.10
64062;DHT22;50308;47.438;-1.528;2023-09-12T13:07:50;23.20;80.20
64062;DHT22;50308;47.438;-1.528;2023-09-12T13:10:16;23.10;80.00
64062;DHT22;50308;47.438;-1.528;2023-09-12T13:12:42;23.20;80.00
64062;DHT22;50308;47.438;-1.528;2023-09-12T13:15:11;23.20;79.80
64062;DHT22;50308;47.438;-1.528;2023-09-12T13:17:37;23.20;79.10
64062;DHT22;50308;47.438;-1.528;2023-09-12T13:20:03;23.20;79.00
64062;DHT22;50308;47.438;-1.528;2023-09-12T13:22:29;23.20;78.90
64062;DHT22;50308;47.438;-1.528;2023-09-12T13:24:55;23.20;78.90
64062;DHT22;50308;47.438;-1.528;2023-09-12T13:27:22;23.20;78.30
64062;DHT22;50308;47.438;-1.528;2023-09-12T13:29:47;23.20;79.00
64062;DHT22;50308;47.438;-1.528;2023-09-12T13:32:13;23.20;78.50
64062;DHT22;50308;47.438;-1.528;2023-09-12T13:34:40;23.20;78.60
64062;DHT22;50308;47.438;-1.528;2023-09-12T13:37:06;23.20;78.20
64062;DHT22;50308;47.438;-1.528;2023-09-12T13:39:32;23.20;78.80
64062;DHT22;50308;47.438;-1.528;2023-09-12T13:41:57;23.20;78.70
64062;DHT22;50308;47.438;-1.528;2023-09-12T13:44:25;23.20;78.90
64062;DHT22;50308;47.438;-1.528;2023-09-12T13:46:51;23.20;78.70
64062;DHT22;50308;47.438;-1.528;2023-09-12T13:49:16;23.30;78.00
64062;DHT22;50308;47.438;-1.528;2023-09-12T13:51:42;23.20;78.60
64062;DHT22;50308;47.438;-1.528;2023-09-12T13:54:08;23.20;78.80
64062;DHT22;50308;47.438;-1.528;2023-09-12T13:56:40;23.20;79.10
64062;DHT22;50308;47.438;-1.528;2023-09-12T13:59:06;23.20;79.20
64062;DHT22;50308;47.438;-1.528;2023-09-12T14:01:32;23.20;79.00
64062;DHT22;50308;47.438;-1.528;2023-09-12T14:03:57;23.20;79.20
64062;DHT22;50308;47.438;-1.528;2023-09-12T14:06:23;23.20;79.20
64062;DHT22;50308;47.438;-1.528;2023-09-12T14:08:49;23.20;78.90
64062;DHT22;50308;47.438;-1.528;2023-09-12T14:11:15;23.20;79.20
64062;DHT22;50308;47.438;-1.528;2023-09-12T14:13:40;23.20;78.80
64062;DHT22;50308;47.438;-1.528;2023-09-12T14:16:06;23.20;78.80
64062;DHT22;50308;47.438;-1.528;2023-09-12T14:18:32;23.20;79.50
64062;DHT22;50308;47.438;-1.528;2023-09-12T14:20:57;23.30;78.80
64062;DHT22;50308;47.438;-1.528;2023-09-12T14:23:23;23.30;79.10
64062;DHT22;50308;47.438;-1.528;2023-09-12T14:25:49;23.30;79.20
64062;DHT22;50308;47.438;-1.528;2023-09-12T14:28:15;23.30;79.00
64062;DHT22;50308;47.438;-1.528;2023-09-12T14:30:40;23.20;79.20
64062;DHT22;50308;47.438;-1.528;2023-09-12T14:33:10;23.30;79.20
64062;DHT22;50308;47.438;-1.528;2023-09-12T14:35:35;23.30;79.50
64062;DHT22;50308;47.438;-1.528;2023-09-12T14:38:03;23.30;79.50
64062;DHT22;50308;47.438;-1.528;2023-09-12T14:40:32;23.30;79.30
64062;DHT22;50308;47.438;-1.528;2023-09-12T14:42:58;23.30;79.30
64062;DHT22;50308;47.438;-1.528;2023-09-12T14:45:23;23.30;79.10
64062;DHT22;50308;47.438;-1.528;2023-09-12T14:47:51;23.30;79.00
64062;DHT22;50308;47.438;-1.528;2023-09-12T14:50:16;23.30;79.00
64062;DHT22;50308;47.438;-1.528;2023-09-12T14:52:42;23.30;79.10
64062;DHT22;50308;47.438;-1.528;2023-09-12T14:55:09;23.30;78.20
64062;DHT22;50308;47.438;-1.528;2023-09-12T14:57:35;23.30;78.70
64062;DHT22;50308;47.438;-1.528;2023-09-12T15:00:00;23.30;78.90
64062;DHT22;50308;47.438;-1.528;2023-09-12T15:02:26;23.30;78.70
64062;DHT22;50308;47.438;-1.528;2023-09-12T15:04:57;23.30;78.60
64062;DHT22;50308;47.438;-1.528;2023-09-12T15:07:23;23.40;79.00
64062;DHT22;50308;47.438;-1.528;2023-09-12T15:09:50;23.40;79.30
64062;DHT22;50308;47.438;-1.528;2023-09-12T15:12:15;23.40;79.10
64062;DHT22;50308;47.438;-1.528;2023-09-12T15:14:41;23.40;78.90
64062;DHT22;50308;47.438;-1.528;2023-09-12T15:17:07;23.40;78.60
64062;DHT22;50308;47.438;-1.528;2023-09-12T15:19:33;23.40;78.70
64062;DHT22;50308;47.438;-1.528;2023-09-12T15:21:58;23.40;78.90
64062;DHT22;50308;47.438;-1.528;2023-09-12T15:24:24;23.40;78.50
64062;DHT22;50308;47.438;-1.528;2023-09-12T15:26:49;23.40;78.00
64062;DHT22;50308;47.438;-1.528;2023-09-12T15:29:15;23.40;78.20
64062;DHT22;50308;47.438;-1.528;2023-09-12T15:31:41;23.40;77.00
64062;DHT22;50308;47.438;-1.528;2023-09-12T15:34:06;23.50;77.40
64062;DHT22;50308;47.438;-1.528;2023-09-12T15:36:41;23.50;78.10
64062;DHT22;50308;47.438;-1.528;2023-09-12T15:39:06;23.60;77.50
64062;DHT22;50308;47.438;-1.528;2023-09-12T15:41:32;23.60;76.90